sensor_id;sensor_type;location;lat;lon;timestamp;temperature;humidity
10437;DHT22;5265;50.006;9.202;2023-04-24T00:01:07;11.70;99.90
10437;DHT22;5265;50.006;9.202;2023-04-24T00:03:34;11.70;99.90
10437;DHT22;5265;50.006;9.202;2023-04-24T00:06:01;11.70;99.90
10437;DHT22;5265;50.006;9.202;2023-04-24T00:08:29;11.60;99.90
10437;DHT22;5265;50.006;9.202;2023-04-24T00:10:56;11.60;99.90
10437;DHT22;5265;50.006;9.202;2023-04-24T00:13:23;11.60;99.90
10437;DHT22;5265;50.006;9.202;2023-04-24T00:15:52;11.60;99.90
10437;DHT22;5265;50.006;9.202;2023-04-24T00:18:19;11.60;99.90
10437;DHT22;5265;50.006;9.202;2023-04-24T00:20:46;11.60;99.90
10437;DHT22;5265;50.006;9.202;2023-04-24T00:23:13;11.50;99.90
10437;DHT22;5265;50.006;9.202;2023-04-24T00:25:40;11.50;99.90
10437;DHT22;5265;50.006;9.202;2023-04-24T00:28:07;11.50;99.90
10437;DHT22;5265;50.006;9.202;2023-04-24T00:30:34;11.50;99.90
10437;DHT22;5265;50.006;9.202;2023-04-24T00:33:03;11.50;99.90
10437;DHT22;5265;50.006;9.202;2023-04-24T00:35:30;11.50;99.90
10437;DHT22;5265;50.006;9.202;2023-04-24T00:37:57;11.50;99.90
10437;DHT22;5265;50.006;9.202;2023-04-24T00:40:24;11.50;99.90
10437;DHT22;5265;50.006;9.202;2023-04-24T00:42:51;11.40;99.90
10437;DHT22;5265;50.006;9.202;2023-04-24T00:45:19;11.50;99.90
10437;DHT22;5265;50.006;9.202;2023-04-24T00:47:46;11.50;99.90
10437;DHT22;5265;50.006;9.202;2023-04-24T00:50:16;11.50;99.90
10437;DHT22;5265;50.006;9.202;2023-04-24T00:52:43;11.50;99.90
10437;DHT22;5265;50.006;9.202;2023-04-24T00:55:10;11.50;99.90
10437;DHT22;5265;50.006;9.202;2023-04-24T00:57:38;11.50;99.90
10437;DHT22;5265;50.006;9.202;2023-04-24T01:00:06;11.50;99.90
10437;DHT22;5265;50.006;9.202;2023-04-24T01:02:38;11.40;99.90
10437;DHT22;5265;50.006;9.202;2023-04-24T01:05:09;11.40;99.90
10437;DHT22;5265;50.006;9.202;2023-04-24T01:07:38;11.40;99.90
10437;DHT22;5265;50.006;9.202;2023-04-24T01:10:06;11.50;99.90
10437;DHT22;5265;50.006;9.202;2023-04-24T01:12:33;11.50;99.90
10437;DHT22;5265;50.006;9.202;2023-04-24T01:15:01;11.50;99.90
10437;DHT22;5265;50.006;9.202;2023-04-24T01:17:28;11.50;99.90
10437;DHT22;5265;50.006;9.202;2023-04-24T01:19:55;11.60;99.90
10437;DHT22;5265;50.006;9.202;2023-04-24T01:22:24;11.60;99.90
10437;DHT22;5265;50.006;9.202;2023-04-24T01:24:51;11.60;99.90
10437;DHT22;5265;50.006;9.202;2023-04-24T01:27:19;11.60;99.90
10437;DHT22;5265;50.006;9.202;2023-04-24T01:29:46;11.60;99.90
10437;DHT22;5265;50.006;9.202;2023-04-24T01:32:15;11.60;99.90
10437;DHT22;5265;50.006;9.202;2023-04-24T01:34:42;11.60;99.90
10437;DHT22;5265;50.006;9.202;2023-04-24T01:37:09;11.50;99.90
10437;DHT22;5265;50.006;9.202;2023-04-24T01:39:37;11.50;99.90
10437;DHT22;5265;50.006;9.202;2023-04-24T01:42:05;11.50;99.90
10437;DHT22;5265;50.006;9.202;2023-04-24T01:44:33;11.60;99.90
10437;DHT22;5265;50.006;9.202;2023-04-24T01:47:00;11.60;99.90
10437;DHT22;5265;50.006;9.202;2023-04-24T01:49:29;11.60;99.90
10437;DHT22;5265;50.006;9.202;2023-04-24T01:51:56;11.60;99.90
10437;DHT22;5265;50.006;9.202;2023-04-24T01:54:23;11.70;99.90
10437;DHT22;5265;50.006;9.202;2023-04-24T01:56:52;11.70;99.90
10437;DHT22;5265;50.006;9.202;2023-04-24T01:59:20;11.70;99.90
10437;DHT22;5265;50.006;9.202;2023-04-24T02:01:47;11.70;99.90
10437;DHT22;5265;50.006;9.202;2023-04-24T02:04:18;11.70;99.90
10437;DHT22;5265;50.006;9.202;2023-04-24T02:06:46;11.80;99.90
10437;DHT22;5265;50.006;9.202;2023-04-24T02:09:13;11.80;99.90
10437;DHT22;5265;50.006;9.202;2023-04-24T02:11:41;11.80;99.90
10437;DHT22;5265;50.006;9.202;2023-04-24T02:14:09;11.80;99.90
10437;DHT22;5265;50.006;9.202;2023-04-24T02:16:39;11.80;99.90
10437;DHT22;5265;50.006;9.202;2023-04-24T02:19:06;11.70;99.90
10437;DHT22;5265;50.006;9.202;2023-04-24T02:21:33;11.70;99.90
10437;DHT22;5265;50.006;9.202;2023-04-24T02:24:00;11.80;99.90
10437;DHT22;5265;50.006;9.202;2023-04-24T02:26:27;11.80;99.90
10437;DHT22;5265;50.006;9.202;2023-04-24T02:28:54;11.80;99.90
10437;DHT22;5265;50.006;9.202;2023-04-24T02:31:23;11.70;99.90
10437;DHT22;5265;50.006;9.202;2023-04-24T02:33:50;11.80;99.90
10437;DHT22;5265;50.006;9.202;2023-04-24T02:36:17;11.80;99.90
10437;DHT22;5265;50.006;9.202;2023-04-24T02:38:44;11.80;99.90
10437;DHT22;5265;50.006;9.202;2023-04-24T02:41:12;11.80;99.90
10437;DHT22;5265;50.006;9.202;2023-04-24T02:43:41;11.80;99.90
10437;DHT22;5265;50.006;9.202;2023-04-24T02:46:09;11.90;99.90
10437;DHT22;5265;50.006;9.202;2023-04-24T02:48:37;11.80;99.90
10437;DHT22;5265;50.006;9.202;2023-04-24T02:51:05;11.90;99.90
10437;DHT22;5265;50.006;9.202;2023-04-24T02:53:33;11.80;99.90
10437;DHT22;5265;50.006;9.202;2023-04-24T02:56:00;11.70;99.90
10437;DHT22;5265;50.006;9.202;2023-04-24T02:58:27;11.80;99.90
10437;DHT22;5265;50.006;9.202;2023-04-24T03:00:54;11.90;99.90
10437;DHT22;5265;50.006;9.202;2023-04-24T03:03:22;11.80;99.90
10437;DHT22;5265;50.006;9.202;2023-04-24T03:05:51;11.80;99.90
10437;DHT22;5265;50.006;9.202;2023-04-24T03:08:17;11.70;99.90
10437;DHT22;5265;50.006;9.202;2023-04-24T03:10:44;11.70;99.90
10437;DHT22;5265;50.006;9.202;2023-04-24T03:13:14;11.60;99.90
10437;DHT22;5265;50.006;9.202;2023-04-24T03:15:42;11.60;99.90
10437;DHT22;5265;50.006;9.202;2023-04-24T03:18:10;11.50;99.90
10437;DHT22;5265;50.006;9.202;2023-04-24T03:20:37;11.50;99.90
10437;DHT22;5265;50.006;9.202;2023-04-24T03:23:06;11.50;99.90
10437;DHT22;5265;50.006;9.202;2023-04-24T03:25:34;11.40;99.90
10437;DHT22;5265;50.006;9.202;2023-04-24T03:28:03;11.40;99.90
10437;DHT22;5265;50.006;9.202;2023-04-24T03:30:36;11.50;99.90
10437;DHT22;5265;50.006;9.202;2023-04-24T03:33:06;11.50;99.90
10437;DHT22;5265;50.006;9.202;2023-04-24T03:35:36;11.60;99.90
10437;DHT22;5265;50.006;9.202;2023-04-24T03:38:09;11.60;99.90
10437;DHT22;5265;50.006;9.202;2023-04-24T05:22:20;10.00;99.90
10437;DHT22;5265;50.006;9.202;2023-04-24T05:40:10;9.80;99.90
10437;DHT22;5265;50.006;9.202;2023-04-24T06:40:05;10.60;99.90
10437;DHT22;5265;50.006;9.202;2023-04-24T06:47:31;10.80;99.90
10437;DHT22;5265;50.006;9.202;2023-04-24T06:49:58;10.90;99.90
10437;DHT22;5265;50.006;9.202;2023-04-24T06:52:25;11.00;99.90
10437;DHT22;5265;50.006;9.202;2023-04-24T06:54:52;11.00;99.90
10437;DHT22;5265;50.006;9.202;2023-04-24T06:57:20;11.00;99.90
10437;DHT22;5265;50.006;9.202;2023-04-24T06:59:47;10.80;99.90
10437;DHT22;5265;50.006;9.202;2023-04-24T07:14:37;10.60;99.90
10437;DHT22;5265;50.006;9.202;2023-04-24T07:17:04;10.70;99.90
10437;DHT22;5265;50.006;9.202;2023-04-24T07:19:32;10.60;99.90
10437;DHT22;5265;50.006;9.202;2023-04-24T07:29:26;10.60;99.90
10437;DHT22;5265;50.006;9.202;2023-04-24T08:11:26;11.10;99.90
10437;DHT22;5265;50.006;9.202;2023-04-24T08:13:53;11.20;99.90
10437;DHT22;5265;50.006;9.202;2023-04-24T08:21:17;11.10;99.90
10437;DHT22;5265;50.006;9.202;2023-04-24T09:54:53;11.30;99.90
10437;DHT22;5265;50.006;9.202;2023-04-24T09:57:20;11.20;99.90
10437;DHT22;5265;50.006;9.202;2023-04-24T09:59:47;11.40;99.90
10437;DHT22;5265;50.006;9.202;2023-04-24T10:02:18;11.30;99.90
10437;DHT22;5265;50.006;9.202;2023-04-24T10:04:53;11.40;99.90
10437;DHT22;5265;50.006;9.202;2023-04-24T10:07:21;11.30;99.90
10437;DHT22;5265;50.006;9.202;2023-04-24T10:09:48;11.40;99.90
10437;DHT22;5265;50.006;9.202;2023-04-24T10:12:16;11.30;99.90
10437;DHT22;5265;50.006;9.202;2023-04-24T10:14:44;11.40;99.90
10437;DHT22;5265;50.006;9.202;2023-04-24T10:17:12;11.20;99.90
10437;DHT22;5265;50.006;9.202;2023-04-24T10:19:39;11.30;99.90
10437;DHT22;5265;50.006;9.202;2023-04-24T10:22:07;11.30;99.90
10437;DHT22;5265;50.006;9.202;2023-04-24T10:24:34;11.30;99.90
10437;DHT22;5265;50.006;9.202;2023-04-24T10:27:02;11.20;99.90
10437;DHT22;5265;50.006;9.202;2023-04-24T10:29:32;11.30;99.90
10437;DHT22;5265;50.006;9.202;2023-04-24T10:32:00;11.20;99.90
10437;DHT22;5265;50.006;9.202;2023-04-24T10:34:27;11.30;99.90
10437;DHT22;5265;50.006;9.202;2023-04-24T10:36:55;11.40;99.90
10437;DHT22;5265;50.006;9.202;2023-04-24T10:39:22;11.40;99.90
10437;DHT22;5265;50.006;9.202;2023-04-24T10:41:49;11.50;99.90
10437;DHT22;5265;50.006;9.202;2023-04-24T10:44:17;11.50;99.90
10437;DHT22;5265;50.006;9.202;2023-04-24T10:46:45;11.50;99.90
10437;DHT22;5265;50.006;9.202;2023-04-24T10:49:14;11.70;99.90
10437;DHT22;5265;50.006;9.202;2023-04-24T10:51:47;11.70;99.90
10437;DHT22;5265;50.006;9.202;2023-04-24T10:54:27;11.70;99.90
10437;DHT22;5265;50.006;9.202;2023-04-24T10:59:36;11.70;99.90
10437;DHT22;5265;50.006;9.202;2023-04-24T11:02:04;11.80;99.90
10437;DHT22;5265;50.006;9.202;2023-04-24T11:04:34;11.60;99.90
10437;DHT22;5265;50.006;9.202;2023-04-24T11:07:02;11.50;99.90
10437;DHT22;5265;50.006;9.202;2023-04-24T11:09:30;11.30;99.90
10437;DHT22;5265;50.006;9.202;2023-04-24T11:12:04;11.20;99.90
10437;DHT22;5265;50.006;9.202;2023-04-24T11:17:28;11.20;99.90
10437;DHT22;5265;50.006;9.202;2023-04-24T11:20:00;11.10;99.90
10437;DHT22;5265;50.006;9.202;2023-04-24T11:22:27;11.30;99.90
10437;DHT22;5265;50.006;9.202;2023-04-24T11:24:56;11.30;99.90
10437;DHT22;5265;50.006;9.202;2023-04-24T11:27:30;11.30;99.90
10437;DHT22;5265;50.006;9.202;2023-04-24T11:30:00;11.50;99.90
10437;DHT22;5265;50.006;9.202;2023-04-24T11:32:30;11.50;99.90
10437;DHT22;5265;50.006;9.202;2023-04-24T11:34:58;11.50;99.90
10437;DHT22;5265;50.006;9.202;2023-04-24T11:37:27;11.40;99.90
10437;DHT22;5265;50.006;9.202;2023-04-24T11:39:55;11.30;99.90
10437;DHT22;5265;50.006;9.202;2023-04-24T11:42:22;10.90;99.90
10437;DHT22;5265;50.006;9.202;2023-04-24T11:44:51;10.70;99.90
